createdAt,value
2022-10-01T00:01:40.811Z,97820.84
2022-10-01T00:03:44.170Z,97813.97
2022-10-01T00:05:47.289Z,97821.97
2022-10-01T00:07:50.235Z,97819.59
2022-10-01T00:09:53.130Z,97822.38
2022-10-01T00:11:56.615Z,97830.28
2022-10-01T00:13:59.580Z,97838.09
2022-10-01T00:16:05.733Z,97839.16
2022-10-01T00:18:10.280Z,97830.50
2022-10-01T00:20:14.640Z,97830.59
2022-10-01T00:22:18.963Z,97823.66
2022-10-01T00:24:21.932Z,97819.47
2022-10-01T00:26:28.112Z,97814.38
2022-10-01T00:28:31.008Z,97814.56
2022-10-01T00:30:38.356Z,97806.06
2022-10-01T00:32:43.124Z,97805.28
2022-10-01T00:34:47.875Z,97804.69
2022-10-01T00:36:50.855Z,97802.47
2022-10-01T00:38:54.242Z,97798.28
2022-10-01T00:40:57.375Z,97807.16
2022-10-01T00:43:00.354Z,97820.03
2022-10-01T00:45:03.350Z,97820.66
2022-10-01T00:47:12.098Z,97817.97
2022-10-01T00:49:16.638Z,97807.56
2022-10-01T00:51:21.579Z,97809.56
2022-10-01T00:53:25.591Z,97816.59
2022-10-01T00:55:31.915Z,97809.09
2022-10-01T00:57:35.286Z,97810.88
2022-10-01T00:59:38.537Z,97817.94
2022-10-01T01:01:42.132Z,97812.94
2022-10-01T01:03:45.300Z,97817.09
2022-10-01T01:05:50.189Z,97817.09
2022-10-01T01:07:54.759Z,97820.66
2022-10-01T01:09:58.072Z,97818.88
2022-10-01T01:12:07.902Z,97811.16
2022-10-01T01:14:18.025Z,97819.16
2022-10-01T01:16:25.370Z,97810.63
2022-10-01T01:18:32.608Z,97806.56
2022-10-01T01:20:52.082Z,97809.34
2022-10-01T01:23:11.958Z,97800.84
2022-10-01T01:25:18.882Z,97800.22
2022-10-01T01:27:28.080Z,97802.06
2022-10-01T01:29:37.512Z,97801.44
2022-10-01T01:31:42.399Z,97811.09
2022-10-01T01:33:47.247Z,97805.69
2022-10-01T01:35:52.920Z,97796.22
2022-10-01T01:38:00.256Z,97794.47
2022-10-01T01:40:05.171Z,97784.16
2022-10-01T01:42:14.502Z,97781.56
2022-10-01T01:44:19.837Z,97780.84
2022-10-01T01:46:32.026Z,97778.16
2022-10-01T01:48:36.941Z,97767.75
2022-10-01T01:50:46.820Z,97766.84
2022-10-01T01:52:49.746Z,97762.56
2022-10-01T01:54:52.785Z,97759.25
2022-10-01T01:56:58.107Z,97756.94
2022-10-01T01:59:01.543Z,97751.94
2022-10-01T02:01:05.291Z,97750.25
2022-10-01T02:03:11.573Z,97755.34
2022-10-01T02:05:16.842Z,97746.53
2022-10-01T02:07:29.700Z,97745.69
2022-10-01T02:09:36.580Z,97737.91
2022-10-01T02:11:45.472Z,97742.16
2022-10-01T02:13:55.342Z,97742.16
2022-10-01T02:16:04.259Z,97731.97
2022-10-01T02:18:13.694Z,97736.56
2022-10-01T02:20:21.107Z,97729.78
2022-10-01T02:22:27.029Z,97731.56
2022-10-01T02:24:36.047Z,97737.38
2022-10-01T02:26:40.924Z,97739.06
2022-10-01T02:28:44.270Z,97737.28
2022-10-01T02:30:47.857Z,97737.19
2022-10-01T02:32:51.438Z,97737.19
2022-10-01T02:34:56.115Z,97735.41
2022-10-01T02:37:00.643Z,97738.84
2022-10-01T02:39:04.781Z,97736.25
2022-10-01T02:41:11.529Z,97733.56
2022-10-01T02:43:19.133Z,97729.91
2022-10-01T02:45:23.713Z,97728.88
2022-10-01T02:47:34.028Z,97735.66
2022-10-01T02:49:37.341Z,97734.72
2022-10-01T02:51:48.488Z,97742.69
2022-10-01T02:53:54.877Z,97728.16
2022-10-01T02:55:58.233Z,97727.41
2022-10-01T02:58:00.226Z,97733.66
2022-10-01T03:00:06.537Z,97734.56
2022-10-01T03:02:09.847Z,97734.78
2022-10-01T03:04:13.292Z,97731.97
2022-10-01T03:06:16.385Z,97731.78
2022-10-01T03:08:20.624Z,97735.97
2022-10-01T03:10:23.519Z,97746.97
2022-10-01T03:12:26.485Z,97735.66
2022-10-01T03:14:29.708Z,97740.84
2022-10-01T03:16:32.585Z,97738.97
2022-10-01T03:18:35.495Z,97740.00
2022-10-01T03:20:38.389Z,97728.06
2022-10-01T03:22:41.238Z,97733.25
2022-10-01T03:24:45.580Z,97730.56
2022-10-01T03:26:49.128Z,97727.22
2022-10-01T03:28:52.015Z,97714.13
2022-10-01T03:31:05.774Z,97717.56
2022-10-01T03:33:08.781Z,97715.81
2022-10-01T03:35:12.651Z,97713.19
2022-10-01T03:37:15.583Z,97707.09
2022-10-01T03:39:18.806Z,97710.50
2022-10-01T03:41:23.251Z,97710.50
2022-10-01T03:43:28.988Z,97714.88
2022-10-01T03:45:32.147Z,97717.19
2022-10-01T03:47:35.094Z,97729.31
2022-10-01T03:49:38.450Z,97726.00
2022-10-01T03:51:41.682Z,97720.59
2022-10-01T03:53:44.600Z,97716.22
2022-10-01T03:55:47.552Z,97715.41
2022-10-01T03:57:52.128Z,97705.00
2022-10-01T03:59:55.015Z,97709.47
2022-10-01T04:01:57.947Z,97706.03
2022-10-01T04:04:01.108Z,97703.34
2022-10-01T04:06:04.055Z,97700.63
2022-10-01T04:08:07.111Z,97702.31
2022-10-01T04:10:10.643Z,97699.81
2022-10-01T04:12:13.663Z,97692.00
2022-10-01T04:14:17.986Z,97693.69
2022-10-01T04:16:21.090Z,97696.28
2022-10-01T04:18:24.069Z,97685.91
2022-10-01T04:20:27.315Z,97688.28
2022-10-01T04:22:30.242Z,97690.91
2022-10-01T04:24:33.190Z,97689.94
2022-10-01T04:26:36.194Z,97694.00
2022-10-01T04:28:39.136Z,97696.59
2022-10-01T04:30:45.041Z,97685.50
2022-10-01T04:32:47.241Z,97682.13
2022-10-01T04:34:56.073Z,97685.78
2022-10-01T04:36:58.957Z,97678.09
2022-10-01T04:39:02.954Z,97682.53
2022-10-01T04:41:06.272Z,97675.72
2022-10-01T04:43:09.875Z,97678.22
2022-10-01T04:45:13.495Z,97670.31
2022-10-01T04:47:17.786Z,97668.63
2022-10-01T04:49:20.923Z,97679.94
2022-10-01T04:51:23.845Z,97675.72
2022-10-01T04:53:26.755Z,97678.31
2022-10-01T04:55:29.634Z,97677.25
2022-10-01T04:57:32.919Z,97675.09
2022-10-01T04:59:35.874Z,97673.03
2022-10-01T05:01:39.283Z,97677.91
2022-10-01T05:03:43.785Z,97675.00
2022-10-01T05:05:46.708Z,97684.44
2022-10-01T05:07:50.963Z,97671.13
2022-10-01T05:09:53.891Z,97676.22
2022-10-01T05:11:56.828Z,97670.09
2022-10-01T05:13:59.876Z,97678.41
2022-10-01T05:16:03.753Z,97678.66
2022-10-01T05:18:08.030Z,97679.47
2022-10-01T05:20:17.841Z,97679.88
2022-10-01T05:22:20.815Z,97681.53
2022-10-01T05:24:23.889Z,97676.94
2022-10-01T05:26:27.168Z,97681.13
2022-10-01T05:28:30.402Z,97685.41
2022-10-01T05:30:33.944Z,97684.53
2022-10-01T05:32:37.176Z,97679.97
2022-10-01T05:34:40.436Z,97681.53
2022-10-01T05:37:03.749Z,97673.28
2022-10-01T05:39:06.960Z,97674.44
2022-10-01T05:41:10.594Z,97685.53
2022-10-01T05:43:13.575Z,97681.03
2022-10-01T05:45:22.946Z,97679.22
2022-10-01T05:47:26.132Z,97680.59
2022-10-01T05:49:29.204Z,97677.03
2022-10-01T05:51:32.470Z,97677.81
2022-10-01T05:53:38.352Z,97672.41
2022-10-01T05:55:41.258Z,97666.28
2022-10-01T05:57:44.375Z,97664.56
2022-10-01T05:59:47.332Z,97663.84
2022-10-01T06:01:50.339Z,97670.97
2022-10-01T06:03:53.470Z,97670.41
2022-10-01T06:05:56.456Z,97659.25
2022-10-01T06:08:00.773Z,97653.34
2022-10-01T06:10:06.302Z,97665.00
2022-10-01T06:12:09.771Z,97655.84
2022-10-01T06:14:12.727Z,97663.19
2022-10-01T06:16:16.468Z,97662.84
2022-10-01T06:18:19.786Z,97657.38
2022-10-01T06:20:24.071Z,97656.22
2022-10-01T06:22:27.025Z,97652.41
2022-10-01T06:24:31.733Z,97657.53
2022-10-01T06:26:36.072Z,97663.44
2022-10-01T06:28:38.990Z,97655.50
2022-10-01T06:30:42.292Z,97661.53
2022-10-01T06:32:45.190Z,97660.13
2022-10-01T06:34:48.102Z,97661.19
2022-10-01T06:36:51.121Z,97661.88
2022-10-01T06:38:54.064Z,97668.91
2022-10-01T06:40:58.691Z,97668.09
2022-10-01T06:43:03.046Z,97666.16
2022-10-01T06:45:07.096Z,97668.53
2022-10-01T06:47:10.140Z,97666.50
2022-10-01T06:49:13.830Z,97674.47
2022-10-01T06:51:36.902Z,97669.00
2022-10-01T06:53:39.098Z,97660.00
2022-10-01T06:55:42.424Z,97663.31
2022-10-01T06:57:45.363Z,97645.72
2022-10-01T06:59:49.711Z,97647.19
2022-10-01T07:01:56.311Z,97648.50
2022-10-01T07:03:59.580Z,97647.28
2022-10-01T07:06:03.838Z,97651.44
2022-10-01T07:08:07.138Z,97652.88
2022-10-01T07:10:11.545Z,97656.75
2022-10-01T07:12:14.501Z,97651.41
2022-10-01T07:14:17.881Z,97650.34
2022-10-01T07:16:22.196Z,97651.75
2022-10-01T07:18:25.278Z,97653.53
2022-10-01T07:20:28.318Z,97653.41
2022-10-01T07:22:31.301Z,97657.69
2022-10-01T07:24:34.216Z,97651.38
2022-10-01T07:26:37.154Z,97659.94
2022-10-01T07:28:40.107Z,97655.53
2022-10-01T07:30:43.502Z,97657.34
2022-10-01T07:32:47.759Z,97651.13
2022-10-01T07:34:51.550Z,97650.88
2022-10-01T07:36:56.211Z,97650.31
2022-10-01T07:38:59.159Z,97642.59
2022-10-01T07:41:03.605Z,97644.97
2022-10-01T07:43:06.568Z,97645.09
2022-10-01T07:45:11.184Z,97647.81
2022-10-01T07:47:15.019Z,97635.47
2022-10-01T07:49:19.412Z,97637.81
2022-10-01T07:51:22.395Z,97641.28
2022-10-01T07:53:25.517Z,97650.88
2022-10-01T07:55:30.657Z,97649.94
2022-10-01T07:57:34.196Z,97652.56
2022-10-01T07:59:38.167Z,97653.38
2022-10-01T08:01:41.185Z,97654.94
2022-10-01T08:03:44.197Z,97651.50
2022-10-01T08:05:49.512Z,97653.97
2022-10-01T08:07:52.621Z,97658.13
2022-10-01T08:09:56.958Z,97657.16
2022-10-01T08:11:59.875Z,97648.25
2022-10-01T08:14:03.191Z,97651.69
2022-10-01T08:16:08.015Z,97653.50
2022-10-01T08:18:11.376Z,97656.81
2022-10-01T08:20:15.755Z,97649.78
2022-10-01T08:22:20.051Z,97653.38
2022-10-01T08:24:22.999Z,97658.59
2022-10-01T08:26:25.920Z,97663.69
2022-10-01T08:28:29.344Z,97665.34
2022-10-01T08:30:32.391Z,97661.78
2022-10-01T08:32:35.407Z,97661.78
2022-10-01T08:34:38.611Z,97660.84
2022-10-01T08:36:41.546Z,97674.03
2022-10-01T08:38:48.175Z,97668.06
2022-10-01T08:40:51.996Z,97680.19
2022-10-01T08:42:59.966Z,97673.19
2022-10-01T08:45:06.882Z,97670.56
2022-10-01T08:47:14.769Z,97673.19
2022-10-01T08:49:21.683Z,97669.63
2022-10-01T08:51:28.439Z,97668.69
2022-10-01T08:53:36.233Z,97675.66
2022-10-01T08:55:41.906Z,97669.75
2022-10-01T08:57:49.781Z,97673.31
2022-10-01T08:59:55.437Z,97664.75
2022-10-01T09:01:59.434Z,97669.88
2022-10-01T09:04:02.743Z,97661.22
2022-10-01T09:06:15.270Z,97666.31
2022-10-01T09:08:23.967Z,97673.31
2022-10-01T09:10:36.854Z,97673.19
2022-10-01T09:12:47.122Z,97673.31
2022-10-01T09:15:05.509Z,97678.53
2022-10-01T09:17:15.857Z,97681.03
2022-10-01T09:19:32.581Z,97674.97
2022-10-01T09:21:50.837Z,97681.88
2022-10-01T09:24:04.298Z,97679.38
2022-10-01T09:26:13.925Z,97675.91
2022-10-01T09:28:20.959Z,97670.44
2022-10-01T09:30:26.189Z,97666.06
2022-10-01T09:32:39.998Z,97661.53
2022-10-01T09:34:44.277Z,97666.50
2022-10-01T09:36:57.724Z,97660.19
2022-10-01T09:39:11.807Z,97665.41
2022-10-01T09:41:14.962Z,97669.56
2022-10-01T09:43:19.897Z,97667.66
2022-10-01T09:45:24.282Z,97672.75
2022-10-01T09:47:27.280Z,97677.88
2022-10-01T09:49:33.798Z,97687.38
2022-10-01T09:51:41.837Z,97690.56
2022-10-01T09:53:47.877Z,97699.97
2022-10-01T09:55:54.085Z,97698.16
2022-10-01T09:58:01.410Z,97701.50
2022-10-01T10:00:10.982Z,97711.00
2022-10-01T10:02:21.467Z,97718.72
2022-10-01T10:04:25.441Z,97717.06
2022-10-01T10:06:29.856Z,97718.94
2022-10-01T10:08:35.072Z,97714.44
2022-10-01T10:10:39.728Z,97708.00
2022-10-01T10:12:44.150Z,97707.75
2022-10-01T10:14:47.933Z,97705.00
2022-10-01T10:16:52.420Z,97698.97
2022-10-01T10:18:57.873Z,97683.28
2022-10-01T10:21:03.763Z,97667.31
2022-10-01T10:23:08.804Z,97683.97
2022-10-01T10:25:14.433Z,97686.44
2022-10-01T10:27:26.779Z,97673.25
2022-10-01T10:29:32.836Z,97673.00
2022-10-01T10:31:40.412Z,97668.75
2022-10-01T10:33:54.071Z,97655.78
2022-10-01T10:35:59.411Z,97669.69
2022-10-01T10:38:02.856Z,97682.75
2022-10-01T10:40:08.152Z,97691.31
2022-10-01T10:42:15.922Z,97686.66
2022-10-01T10:44:21.412Z,97693.41
2022-10-01T10:46:32.127Z,97676.53
2022-10-01T10:48:39.328Z,97674.09
2022-10-01T10:50:45.807Z,97682.97
2022-10-01T10:52:49.465Z,97678.06
2022-10-01T10:54:53.457Z,97682.81
2022-10-01T10:57:02.590Z,97665.88
2022-10-01T10:59:09.524Z,97664.53
2022-10-01T11:01:16.379Z,97667.59
2022-10-01T11:03:22.525Z,97668.06
2022-10-01T11:05:27.497Z,97669.44
2022-10-01T11:07:33.377Z,97662.28
2022-10-01T11:09:46.468Z,97664.66
2022-10-01T11:11:56.571Z,97665.78
2022-10-01T11:14:11.794Z,97661.69
2022-10-01T11:16:29.578Z,97663.19
2022-10-01T11:19:03.469Z,97657.41
2022-10-01T11:21:18.843Z,97661.03
2022-10-01T11:23:37.505Z,97660.31
2022-10-01T11:25:44.564Z,97661.03
2022-10-01T11:27:52.946Z,97664.84
2022-10-01T11:30:02.927Z,97672.16
2022-10-01T11:32:12.272Z,97662.78
2022-10-01T11:34:37.426Z,97661.56
2022-10-01T11:36:45.979Z,97668.47
2022-10-01T11:38:55.409Z,97670.91
2022-10-01T11:41:04.468Z,97665.38
2022-10-01T11:43:14.747Z,97662.88
2022-10-01T11:45:22.154Z,97665.50
2022-10-01T11:47:29.357Z,97667.56
2022-10-01T11:49:43.026Z,97668.53
2022-10-01T11:51:49.559Z,97666.88
2022-10-01T11:53:57.411Z,97674.34
2022-10-01T11:56:19.961Z,97668.25
2022-10-01T11:58:47.720Z,97672.81
2022-10-01T12:00:58.190Z,97670.31
2022-10-01T12:03:03.423Z,97675.81
2022-10-01T12:05:08.807Z,97680.22
2022-10-01T12:07:16.325Z,97675.25
2022-10-01T12:09:24.429Z,97678.81
2022-10-01T12:11:32.059Z,97679.91
2022-10-01T12:13:38.527Z,97679.91
2022-10-01T12:15:45.931Z,97678.81
2022-10-01T12:17:52.650Z,97684.19
2022-10-01T12:19:58.350Z,97683.25
2022-10-01T12:22:06.395Z,97673.59
2022-10-01T12:24:13.780Z,97679.91
2022-10-01T12:26:27.251Z,97678.13
2022-10-01T12:28:34.356Z,97682.66
2022-10-01T12:30:42.567Z,97681.13
2022-10-01T12:33:04.739Z,97686.63
2022-10-01T12:35:20.277Z,97684.84
2022-10-01T12:37:34.324Z,97685.78
2022-10-01T12:39:48.294Z,97686.63
2022-10-01T12:41:59.794Z,97685.91
2022-10-01T12:44:32.471Z,97686.03
2022-10-01T12:46:41.914Z,97687.44
2022-10-01T12:48:52.876Z,97687.88
2022-10-01T12:51:08.502Z,97687.75
2022-10-01T12:53:22.371Z,97688.34
2022-10-01T12:55:34.372Z,97697.59
2022-10-01T12:57:44.883Z,97703.34
2022-10-01T13:00:02.212Z,97698.81
2022-10-01T13:02:20.516Z,97707.25
2022-10-01T13:04:41.916Z,97702.81
2022-10-01T13:06:58.084Z,97704.88
2022-10-01T13:09:10.319Z,97708.06
2022-10-01T13:11:21.475Z,97698.31
2022-10-01T13:13:27.424Z,97697.31
2022-10-01T13:15:34.907Z,97710.03
2022-10-01T13:17:42.754Z,97706.47
2022-10-01T13:19:51.166Z,97708.94
2022-10-01T13:22:00.599Z,97708.44
2022-10-01T13:24:09.949Z,97708.44
2022-10-01T13:26:17.613Z,97713.41
2022-10-01T13:28:27.384Z,97714.53
2022-10-01T13:30:36.617Z,97715.94
2022-10-01T13:32:52.932Z,97716.63
2022-10-01T13:34:57.079Z,97718.97
2022-10-01T13:37:14.689Z,97721.47
2022-10-01T13:39:22.810Z,97722.06
2022-10-01T13:41:28.567Z,97716.28
2022-10-01T13:43:35.088Z,97717.41
2022-10-01T13:45:43.096Z,97724.19
2022-10-01T13:47:47.429Z,97719.50
2022-10-01T13:49:56.754Z,97718.53
2022-10-01T13:52:03.029Z,97719.34
2022-10-01T13:54:10.724Z,97722.13
2022-10-01T13:56:16.759Z,97719.09
2022-10-01T13:58:24.430Z,97716.22
2022-10-01T14:00:29.671Z,97717.75
2022-10-01T14:02:35.865Z,97718.44
2022-10-01T14:04:40.525Z,97714.47
2022-10-01T14:06:47.395Z,97723.88
2022-10-01T14:08:53.674Z,97719.56
2022-10-01T14:11:16.326Z,97724.44
2022-10-01T14:13:36.907Z,97729.44
2022-10-01T14:16:03.298Z,97728.16
2022-10-01T14:18:10.015Z,97728.75
2022-10-01T14:20:18.585Z,97730.97
2022-10-01T14:22:33.050Z,97728.88
2022-10-01T14:24:44.540Z,97727.94
2022-10-01T14:26:51.930Z,97727.66
2022-10-01T14:29:05.753Z,97722.97
2022-10-01T14:31:14.175Z,97732.22
2022-10-01T14:33:39.212Z,97736.22
2022-10-01T14:35:47.538Z,97730.69
2022-10-01T14:37:51.207Z,97732.25
2022-10-01T14:40:04.742Z,97731.81
2022-10-01T14:42:17.044Z,97737.75
2022-10-01T14:44:25.519Z,97734.19
2022-10-01T14:46:30.282Z,97731.28
2022-10-01T14:48:34.567Z,97731.00
2022-10-01T14:50:39.288Z,97722.56
2022-10-01T14:52:46.888Z,97729.19
2022-10-01T14:54:53.226Z,97731.41
2022-10-01T14:56:56.968Z,97738.19
2022-10-01T14:59:03.385Z,97745.78
2022-10-01T15:01:07.730Z,97744.69
2022-10-01T15:03:15.533Z,97742.75
2022-10-01T15:05:24.559Z,97743.41
2022-10-01T15:07:34.226Z,97745.91
2022-10-01T15:09:38.172Z,97752.69
2022-10-01T15:11:44.418Z,97757.66
2022-10-01T15:13:49.089Z,97748.78
2022-10-01T15:15:52.472Z,97756.94
2022-10-01T15:17:55.625Z,97747.72
2022-10-01T15:20:00.203Z,97755.44
2022-10-01T15:22:03.765Z,97752.69
2022-10-01T15:24:20.495Z,97748.94
2022-10-01T15:26:27.259Z,97748.78
2022-10-01T15:28:32.146Z,97756.53
2022-10-01T15:30:37.506Z,97762.78
2022-10-01T15:32:40.776Z,97755.03
2022-10-01T15:34:49.663Z,97754.91
2022-10-01T15:36:55.264Z,97757.53
2022-10-01T15:38:59.433Z,97754.03
2022-10-01T15:41:29.868Z,97763.72
2022-10-01T15:43:35.538Z,97768.31
2022-10-01T15:45:39.011Z,97768.44
2022-10-01T15:47:51.873Z,97773.56
2022-10-01T15:50:07.907Z,97787.38
2022-10-01T15:52:34.745Z,97789.19
2022-10-01T15:54:38.473Z,97787.78
2022-10-01T15:56:43.203Z,97788.75
2022-10-01T15:58:50.737Z,97784.47
2022-10-01T16:00:59.789Z,97786.97
2022-10-01T16:03:05.692Z,97788.59
2022-10-01T16:05:09.755Z,97798.16
2022-10-01T16:07:21.303Z,97796.47
2022-10-01T16:09:25.165Z,97799.09
2022-10-01T16:11:32.015Z,97809.75
2022-10-01T16:13:39.237Z,97817.34
2022-10-01T16:15:42.354Z,97809.34
2022-10-01T16:17:55.561Z,97815.56
2022-10-01T16:20:00.221Z,97822.59
2022-10-01T16:22:17.134Z,97828.00
2022-10-01T16:24:27.921Z,97828.00
2022-10-01T16:26:37.737Z,97841.13
2022-10-01T16:28:40.890Z,97833.97
2022-10-01T16:30:45.117Z,97842.66
2022-10-01T16:32:48.143Z,97837.53
2022-10-01T16:34:51.645Z,97833.25
2022-10-01T16:36:54.712Z,97829.94
2022-10-01T16:38:57.878Z,97821.78
2022-10-01T16:41:03.959Z,97821.25
2022-10-01T16:43:09.033Z,97824.81
2022-10-01T16:45:15.760Z,97828.41
2022-10-01T16:47:18.866Z,97826.75
2022-10-01T16:49:21.956Z,97837.25
2022-10-01T16:51:25.166Z,97847.78
2022-10-01T16:53:29.526Z,97850.41
2022-10-01T16:55:36.504Z,97849.69
2022-10-01T16:57:42.434Z,97849.81
2022-10-01T16:59:45.420Z,97849.94
2022-10-01T17:01:48.868Z,97849.69
2022-10-01T17:03:52.064Z,97860.31
2022-10-01T17:05:55.191Z,97866.41
2022-10-01T17:07:59.298Z,97868.19
2022-10-01T17:10:02.283Z,97879.41
2022-10-01T17:12:05.584Z,97884.53
2022-10-01T17:14:15.585Z,97881.75
2022-10-01T17:16:24.435Z,97878.16
2022-10-01T17:18:27.782Z,97885.06
2022-10-01T17:20:31.209Z,97880.91
2022-10-01T17:22:34.321Z,97885.88
2022-10-01T17:24:37.335Z,97887.84
2022-10-01T17:26:41.568Z,97896.53
2022-10-01T17:28:44.558Z,97892.25
2022-10-01T17:30:49.939Z,97893.22
2022-10-01T17:32:52.927Z,97897.66
2022-10-01T17:34:55.914Z,97903.03
2022-10-01T17:36:59.839Z,97908.16
2022-10-01T17:39:03.140Z,97908.69
2022-10-01T17:41:06.274Z,97906.19
2022-10-01T17:43:11.736Z,97912.94
2022-10-01T17:45:15.298Z,97915.84
2022-10-01T17:47:20.100Z,97923.44
2022-10-01T17:49:23.151Z,97919.19
2022-10-01T17:51:26.677Z,97917.66
2022-10-01T17:53:34.934Z,97915.16
2022-10-01T17:55:42.320Z,97922.09
2022-10-01T17:57:45.322Z,97926.47
2022-10-01T17:59:48.294Z,97940.47
2022-10-01T18:01:54.324Z,97938.53
2022-10-01T18:04:00.340Z,97933.13
2022-10-01T18:06:04.006Z,97947.81
2022-10-01T18:08:07.065Z,97941.69
2022-10-01T18:10:12.118Z,97945.56
2022-10-01T18:12:15.127Z,97948.06
2022-10-01T18:14:18.166Z,97955.94
2022-10-01T18:16:22.585Z,97963.81
2022-10-01T18:19:51.467Z,97962.84
2022-10-01T18:20:50.052Z,97955.69
2022-10-01T18:22:53.273Z,97961.88
2022-10-01T18:24:56.274Z,97960.78
2022-10-01T18:26:59.317Z,97967.69
2022-10-01T18:29:02.380Z,97974.63
2022-10-01T18:31:20.237Z,97974.63
2022-10-01T18:33:24.021Z,97980.81
2022-10-01T18:35:31.474Z,97993.69
2022-10-01T18:37:40.637Z,97990.09
2022-10-01T18:39:46.304Z,97994.53
2022-10-01T18:41:50.094Z,98001.56
2022-10-01T18:43:53.017Z,98000.03
2022-10-01T18:46:09.247Z,98006.94
2022-10-01T18:48:38.324Z,98015.53
2022-10-01T18:50:44.541Z,98024.09
2022-10-01T18:53:04.527Z,98028.41
2022-10-01T18:55:51.767Z,98032.53
2022-10-01T18:58:08.711Z,98036.84
2022-10-01T19:00:13.488Z,98036.97
2022-10-01T19:02:52.159Z,98047.47
2022-10-01T19:05:26.896Z,98042.22
2022-10-01T19:07:45.710Z,98047.59
2022-10-01T19:09:55.806Z,98047.72
2022-10-01T19:12:08.085Z,98052.28
2022-10-01T19:14:34.759Z,98058.63
2022-10-01T19:16:45.406Z,98055.44
2022-10-01T19:19:03.055Z,98063.59
2022-10-01T19:21:18.464Z,98058.72
2022-10-01T19:23:37.985Z,98059.66
2022-10-01T19:25:44.965Z,98072.78
2022-10-01T19:27:59.346Z,98074.59
2022-10-01T19:30:07.124Z,98082.59
2022-10-01T19:32:13.817Z,98085.34
2022-10-01T19:34:19.246Z,98091.56
2022-10-01T19:36:26.446Z,98096.81
2022-10-01T19:38:34.379Z,98099.31
2022-10-01T19:40:40.592Z,98105.75
2022-10-01T19:42:47.566Z,98114.22
2022-10-01T19:44:56.775Z,98119.34
2022-10-01T19:47:08.664Z,98120.19
2022-10-01T19:49:17.180Z,98124.47
2022-10-01T19:51:23.559Z,98131.25
2022-10-01T19:53:30.671Z,98136.22
2022-10-01T19:55:38.965Z,98145.78
2022-10-01T19:57:43.943Z,98146.59
2022-10-01T19:59:48.859Z,98150.91
2022-10-01T20:01:54.136Z,98159.47
2022-10-01T20:04:02.291Z,98162.84
2022-10-01T20:06:08.752Z,98168.78
2022-10-01T20:08:17.880Z,98176.41
2022-10-01T20:10:22.312Z,98184.41
2022-10-01T20:12:29.637Z,98171.53
2022-10-01T20:15:01.991Z,98176.53
2022-10-01T20:17:13.981Z,98186.09
2022-10-01T20:19:20.461Z,98185.22
2022-10-01T20:21:35.603Z,98193.84
2022-10-01T20:23:44.090Z,98200.59
2022-10-01T20:25:51.795Z,98190.91
2022-10-01T20:28:00.609Z,98196.16
2022-10-01T20:30:06.299Z,98203.09
2022-10-01T20:32:15.700Z,98202.41
2022-10-01T20:34:25.389Z,98202.53
2022-10-01T20:36:36.730Z,98200.72
2022-10-01T20:38:44.291Z,98202.41
2022-10-01T20:40:50.572Z,98197.03
2022-10-01T20:42:57.630Z,98200.47
2022-10-01T20:45:01.403Z,98202.16
2022-10-01T20:47:07.452Z,98218.03
2022-10-01T20:49:15.311Z,98211.81
2022-10-01T20:51:26.266Z,98218.59
2022-10-01T20:53:35.841Z,98234.34
2022-10-01T20:55:40.852Z,98231.72
2022-10-01T20:57:48.432Z,98224.81
2022-10-01T20:59:53.604Z,98228.16
2022-10-01T21:02:02.417Z,98224.94
2022-10-01T21:04:09.702Z,98232.81
2022-10-01T21:06:16.802Z,98230.19
2022-10-01T21:08:30.256Z,98232.69
2022-10-01T21:10:38.832Z,98244.75
2022-10-01T21:12:45.816Z,98243.06
2022-10-01T21:14:53.558Z,98250.13
2022-10-01T21:17:05.825Z,98248.19
2022-10-01T21:19:20.524Z,98243.78
2022-10-01T21:21:31.055Z,98260.50
2022-10-01T21:23:49.577Z,98262.19
2022-10-01T21:25:59.686Z,98258.00
2022-10-01T21:28:12.401Z,98277.06
2022-10-01T21:30:16.821Z,98279.69
2022-10-01T21:32:25.994Z,98283.06
2022-10-01T21:34:33.982Z,98288.19
2022-10-01T21:36:49.964Z,98289.00
2022-10-01T21:38:56.904Z,98290.94
2022-10-01T21:41:21.803Z,98295.34
2022-10-01T21:43:35.642Z,98298.94
2022-10-01T21:45:43.824Z,98292.84
2022-10-01T21:47:59.509Z,98291.19
2022-10-01T21:50:10.407Z,98290.34
2022-10-01T21:52:22.423Z,98293.94
2022-10-01T21:54:40.119Z,98298.59
2022-10-01T21:56:54.968Z,98303.03
2022-10-01T21:59:06.987Z,98299.56
2022-10-01T22:01:16.247Z,98311.88
2022-10-01T22:03:23.783Z,98308.16
2022-10-01T22:05:32.476Z,98310.91
2022-10-01T22:07:41.303Z,98306.47
2022-10-01T22:09:47.991Z,98308.28
2022-10-01T22:11:54.630Z,98320.44
2022-10-01T22:13:59.754Z,98314.34
2022-10-01T22:16:07.626Z,98315.31
2022-10-01T22:18:14.105Z,98317.94
2022-10-01T22:20:18.654Z,98324.03
2022-10-01T22:22:23.761Z,98331.09
2022-10-01T22:24:33.370Z,98330.09
2022-10-01T22:26:39.762Z,98327.63
2022-10-01T22:28:45.018Z,98327.75
2022-10-01T22:30:49.279Z,98332.28
2022-10-01T22:32:55.741Z,98328.69
2022-10-01T22:35:02.276Z,98341.97
2022-10-01T22:37:11.592Z,98340.28
2022-10-01T22:39:20.351Z,98353.78
2022-10-01T22:41:29.524Z,98346.88
2022-10-01T22:43:32.515Z,98340.78
2022-10-01T22:45:46.372Z,98343.28
2022-10-01T22:48:04.574Z,98349.88
2022-10-01T22:50:25.718Z,98355.94
2022-10-01T22:52:33.653Z,98361.19
2022-10-01T22:54:45.361Z,98357.75
2022-10-01T22:56:56.472Z,98359.53
2022-10-01T22:59:08.144Z,98372.66
2022-10-01T23:01:17.328Z,98364.06
2022-10-01T23:03:27.173Z,98371.94
2022-10-01T23:05:40.642Z,98366.69
2022-10-01T23:07:50.789Z,98370.03
2022-10-01T23:09:59.903Z,98365.63
2022-10-01T23:12:09.566Z,98370.03
2022-10-01T23:14:20.077Z,98380.53
2022-10-01T23:16:29.645Z,98383.16
2022-10-01T23:18:40.773Z,98375.28
2022-10-01T23:20:48.609Z,98387.25
2022-10-01T23:23:05.837Z,98389.25
2022-10-01T23:25:17.663Z,98394.50
2022-10-01T23:27:31.795Z,98380.31
2022-10-01T23:29:52.598Z,98382.94
2022-10-01T23:32:01.565Z,98390.09
2022-10-01T23:34:25.591Z,98408.47
2022-10-01T23:36:34.577Z,98402.63
2022-10-01T23:38:54.711Z,98402.75
2022-10-01T23:40:59.444Z,98401.91
2022-10-01T23:43:06.540Z,98404.41
2022-10-01T23:45:22.444Z,98405.13
2022-10-01T23:47:28.323Z,98408.59
2022-10-01T23:49:37.139Z,98394.63
2022-10-01T23:51:44.460Z,98404.19
2022-10-01T23:53:54.410Z,98417.41
2022-10-01T23:56:21.367Z,98417.53
2022-10-01T23:58:30.026Z,98428.75
